Time;durP1;ratioP1;P1;durP2;ratioP2;P2;SDS_P1;SDS_P2;PMS_P1;PMS_P2;Temp;Humidity;BMP_temperature;BMP_pressure;BME280_temperature;BME280_humidity;BME280_pressure;Samples;Min_cycle;Max_cycle;Signal;HPM_P1;HPM_P2
2023/09/03 00:00:38;;;;;;;6.25;4.47;;;20.70;58.90;;;;;;5027949;27;114101;-78
2023/09/03 00:03:06;;;;;;;8.50;5.78;;;20.80;58.70;;;;;;5028126;28;114138;-78
2023/09/03 00:05:33;;;;;;;7.25;4.88;;;20.80;59.30;;;;;;5026764;28;115091;-77
2023/09/03 00:08:00;;;;;;;9.15;5.45;;;20.80;58.80;;;;;;5025553;28;114762;-79
2023/09/03 00:10:28;;;;;;;7.18;4.80;;;20.80;59.00;;;;;;5027253;28;114152;-78
2023/09/03 00:12:55;;;;;;;7.57;5.22;;;20.80;58.90;;;;;;5026230;28;114391;-78
2023/09/03 00:15:23;;;;;;;6.80;5.05;;;20.80;59.00;;;;;;5025088;28;115412;-78
2023/09/03 00:17:51;;;;;;;8.02;5.80;;;20.70;59.00;;;;;;5025042;28;115792;-78
2023/09/03 00:20:18;;;;;;;6.07;4.60;;;20.70;59.70;;;;;;5027351;28;114331;-79
2023/09/03 00:22:45;;;;;;;7.38;5.00;;;20.60;59.40;;;;;;5027282;28;114260;-80
2023/09/03 00:25:12;;;;;;;7.13;5.22;;;20.60;59.60;;;;;;5024998;28;116214;-79
2023/09/03 00:27:39;;;;;;;6.70;5.32;;;20.60;59.40;;;;;;5026832;28;114740;-78
2023/09/03 00:30:07;;;;;;;7.13;4.95;;;20.60;59.70;;;;;;5027176;27;114360;-78
2023/09/03 00:32:34;;;;;;;8.90;6.53;;;20.60;59.50;;;;;;4992876;28;114291;-78
2023/09/03 00:35:01;;;;;;;7.85;5.85;;;20.60;60.40;;;;;;5024442;28;115192;-78
2023/09/03 00:37:28;;;;;;;8.55;6.18;;;20.60;60.00;;;;;;5026061;28;115253;-78
2023/09/03 00:39:55;;;;;;;8.60;5.68;;;20.60;60.30;;;;;;5025948;28;114222;-78
2023/09/03 00:42:22;;;;;;;10.98;6.78;;;20.60;60.10;;;;;;5025803;28;114470;-78
2023/09/03 00:44:49;;;;;;;6.95;4.50;;;20.50;60.50;;;;;;5025042;28;115012;-79
2023/09/03 00:47:17;;;;;;;7.25;4.88;;;20.50;59.80;;;;;;5026294;28;114935;-78
2023/09/03 00:49:44;;;;;;;7.47;5.10;;;20.50;59.80;;;;;;5025541;28;115107;-78
2023/09/03 00:52:11;;;;;;;7.50;5.63;;;20.50;59.90;;;;;;5026349;28;114203;-78
2023/09/03 00:54:38;;;;;;;7.50;5.78;;;20.50;60.00;;;;;;5024594;28;116617;-79
2023/09/03 00:57:05;;;;;;;7.70;4.78;;;20.50;60.30;;;;;;5008235;28;114570;-78
2023/09/03 00:59:32;;;;;;;9.35;5.20;;;20.60;59.80;;;;;;5026343;28;114240;-78
2023/09/03 01:01:59;;;;;;;7.28;4.90;;;20.60;60.00;;;;;;5025472;28;114263;-78
2023/09/03 01:04:27;;;;;;;10.60;6.07;;;20.60;60.00;;;;;;5025412;28;116771;-78
2023/09/03 01:06:54;;;;;;;10.18;6.00;;;20.60;60.20;;;;;;5025922;28;114727;-77
2023/09/03 01:09:21;;;;;;;11.25;6.18;;;20.50;60.20;;;;;;5025824;28;114331;-78
2023/09/03 01:11:54;;;;;;;13.73;7.10;;;20.60;60.30;;;;;;5025361;28;114305;-78
2023/09/03 01:14:53;;;;;;;11.67;7.47;;;20.60;60.80;;;;;;5025052;28;114943;-78
2023/09/03 01:17:41;;;;;;;8.43;5.95;;;20.60;60.60;;;;;;5024512;28;115215;-77
2023/09/03 01:20:26;;;;;;;7.13;5.32;;;20.40;60.90;;;;;;5026153;28;114061;-78
2023/09/03 01:22:59;;;;;;;7.28;4.85;;;20.30;60.60;;;;;;5025280;28;113979;-78
2023/09/03 01:25:54;;;;;;;10.30;6.53;;;20.30;60.50;;;;;;5023918;28;114930;-78
2023/09/03 01:28:31;;;;;;;9.38;6.28;;;20.30;60.90;;;;;;5024743;28;114565;-78
2023/09/03 01:31:02;;;;;;;8.32;5.45;;;20.30;60.80;;;;;;4992076;28;114379;-78
2023/09/03 01:33:30;;;;;;;7.78;5.55;;;20.30;60.70;;;;;;5025409;28;114125;-79
2023/09/03 01:35:59;;;;;;;11.15;7.70;;;20.30;60.60;;;;;;5024053;28;115314;-78
2023/09/03 01:38:26;;;;;;;14.32;7.47;;;20.30;61.30;;;;;;4991206;28;116229;-78
2023/09/03 01:40:55;;;;;;;8.18;5.57;;;20.30;61.30;;;;;;5026131;28;114269;-80
2023/09/03 01:43:22;;;;;;;8.38;5.40;;;20.20;60.90;;;;;;5025290;28;114295;-79
2023/09/03 01:46:06;;;;;;;10.20;5.55;;;20.20;60.60;;;;;;5007518;28;117635;-78
2023/09/03 01:48:51;;;;;;;8.90;5.53;;;20.30;60.40;;;;;;5024030;28;114765;-79
2023/09/03 01:51:24;;;;;;;9.98;5.90;;;20.30;60.30;;;;;;5025473;28;114246;-79
2023/09/03 01:54:23;;;;;;;7.53;5.00;;;20.20;60.50;;;;;;5024947;28;114325;-79
2023/09/03 01:57:04;;;;;;;13.07;7.55;;;20.30;60.30;;;;;;5023690;28;115678;-78
2023/09/03 01:59:43;;;;;;;9.95;6.18;;;20.30;60.80;;;;;;5007333;28;114655;-79
2023/09/03 02:02:11;;;;;;;9.15;5.82;;;20.30;60.40;;;;;;5009321;28;114326;-79
2023/09/03 02:04:38;;;;;;;9.38;5.32;;;20.30;60.50;;;;;;5024887;28;114263;-79
2023/09/03 02:07:05;;;;;;;11.88;6.97;;;20.30;60.20;;;;;;5007225;28;115887;-79
2023/09/03 02:09:33;;;;;;;10.48;6.25;;;20.30;60.50;;;;;;5025296;28;115256;-79
2023/09/03 02:12:01;;;;;;;11.07;6.95;;;20.40;60.20;;;;;;5024482;28;114319;-78
2023/09/03 02:14:28;;;;;;;9.23;6.10;;;20.40;60.30;;;;;;5007795;28;114332;-79
2023/09/03 02:16:55;;;;;;;12.43;7.18;;;20.40;59.90;;;;;;5023168;28;116292;-79
2023/09/03 02:19:23;;;;;;;12.48;7.40;;;20.40;60.40;;;;;;5024730;28;114736;-78
2023/09/03 02:21:50;;;;;;;11.63;6.93;;;20.20;60.70;;;;;;5025945;28;114159;-79
2023/09/03 02:24:18;;;;;;;9.93;6.25;;;20.10;61.00;;;;;;5024619;28;114505;-79
2023/09/03 02:26:45;;;;;;;11.45;6.72;;;20.20;60.70;;;;;;5006834;28;115208;-79
2023/09/03 02:29:13;;;;;;;9.65;5.93;;;20.20;60.70;;;;;;5007015;28;114833;-79
2023/09/03 02:31:40;;;;;;;11.30;7.03;;;20.20;60.40;;;;;;5007692;28;114285;-79
2023/09/03 02:34:08;;;;;;;10.48;7.25;;;20.30;60.70;;;;;;5024939;28;114498;-79
2023/09/03 02:36:35;;;;;;;13.93;6.85;;;20.30;60.70;;;;;;5007167;28;114801;-79
2023/09/03 02:39:06;;;;;;;8.32;5.68;;;20.30;60.30;;;;;;5025047;27;115732;-79
2023/09/03 02:41:36;;;;;;;11.15;6.38;;;20.30;60.10;;;;;;5027283;28;114066;-79
2023/09/03 02:44:06;;;;;;;11.45;6.88;;;20.30;60.10;;;;;;5027469;28;114243;-79
2023/09/03 02:46:34;;;;;;;9.20;6.10;;;20.30;60.50;;;;;;5028157;28;115014;-79
2023/09/03 02:49:01;;;;;;;9.52;6.05;;;20.30;60.20;;;;;;5026992;28;114560;-79
2023/09/03 02:51:28;;;;;;;9.25;6.13;;;20.20;60.20;;;;;;5027489;28;114183;-79
2023/09/03 02:53:55;;;;;;;9.90;6.13;;;20.20;60.20;;;;;;5010870;28;114457;-79
2023/09/03 02:56:22;;;;;;;12.43;6.50;;;20.20;60.40;;;;;;5026846;28;114942;-79
2023/09/03 02:58:50;;;;;;;10.60;6.30;;;20.30;60.30;;;;;;5010102;28;114657;-78
2023/09/03 03:01:18;;;;;;;12.20;6.35;;;20.30;60.10;;;;;;5010911;28;114341;-79
2023/09/03 03:03:45;;;;;;;10.57;6.03;;;20.30;60.20;;;;;;5027472;28;114461;-79
2023/09/03 03:06:12;;;;;;;9.32;5.55;;;20.30;60.00;;;;;;5025715;28;115069;-79
2023/09/03 03:08:40;;;;;;;9.48;6.45;;;20.30;59.90;;;;;;5009844;28;118163;-79
2023/09/03 03:11:14;;;;;;;9.82;6.05;;;20.30;59.90;;;;;;5027119;28;114404;-79
2023/09/03 03:13:52;;;;;;;8.65;6.20;;;20.30;59.80;;;;;;5028068;28;114346;-79
2023/09/03 03:16:23;;;;;;;8.98;5.55;;;20.30;59.80;;;;;;4993791;28;116460;-79
2023/09/03 03:18:52;;;;;;;10.90;6.78;;;20.30;59.70;;;;;;5026029;28;115357;-79
2023/09/03 03:21:23;;;;;;;8.45;5.90;;;20.30;60.00;;;;;;5027265;28;114191;-79
2023/09/03 03:23:55;;;;;;;9.75;5.63;;;20.40;59.70;;;;;;5027474;28;114576;-79
2023/09/03 03:26:29;;;;;;;11.10;5.90;;;20.40;59.70;;;;;;5026180;28;115053;-79
2023/09/03 03:28:56;;;;;;;10.60;5.60;;;20.30;59.80;;;;;;5026369;28;114572;-79
2023/09/03 03:31:23;;;;;;;10.85;5.53;;;20.30;59.70;;;;;;5009743;28;114322;-79
2023/09/03 03:33:52;;;;;;;8.98;5.43;;;20.40;59.70;;;;;;5026748;28;114314;-78
2023/09/03 03:36:22;;;;;;;8.75;5.47;;;20.30;59.80;;;;;;5009988;28;115520;-79
2023/09/03 03:38:50;;;;;;;7.07;5.05;;;20.40;59.70;;;;;;5026024;28;116030;-79
2023/09/03 03:41:18;;;;;;;8.90;5.35;;;20.30;60.00;;;;;;5026760;28;114350;-78
2023/09/03 03:43:49;;;;;;;8.70;6.13;;;20.30;59.80;;;;;;5010530;28;114245;-79
2023/09/03 03:46:19;;;;;;;9.63;5.28;;;20.30;60.30;;;;;;5008895;28;118658;-79
2023/09/03 03:48:49;;;;;;;8.20;5.90;;;20.30;60.00;;;;;;5025829;28;117333;-79
2023/09/03 03:51:18;;;;;;;11.27;5.90;;;20.30;60.00;;;;;;5026069;27;114270;-79
2023/09/03 03:53:45;;;;;;;8.48;4.75;;;20.30;60.00;;;;;;5026771;28;114088;-78
2023/09/03 03:56:12;;;;;;;9.18;6.30;;;20.30;59.80;;;;;;5025415;28;114806;-80
2023/09/03 03:58:41;;;;;;;10.60;5.85;;;20.30;60.10;;;;;;5009403;28;114384;-78
2023/09/03 04:01:18;;;;;;;8.80;5.95;;;20.30;60.10;;;;;;5027616;28;114824;-79
2023/09/03 04:03:48;;;;;;;10.10;6.20;;;20.40;60.30;;;;;;5026638;28;114917;-80
2023/09/03 04:06:15;;;;;;;9.30;5.88;;;20.30;60.40;;;;;;5026754;27;115393;-79
2023/09/03 04:08:45;;;;;;;7.00;4.85;;;20.20;60.60;;;;;;5008914;28;114612;-78
2023/09/03 04:11:14;;;;;;;8.93;5.78;;;20.00;60.40;;;;;;5027442;28;114231;-78
2023/09/03 04:13:41;;;;;;;7.85;5.53;;;19.90;61.00;;;;;;5009520;28;114310;-80
2023/09/03 04:16:16;;;;;;;8.45;5.28;;;20.00;61.00;;;;;;5009004;28;115019;-79
2023/09/03 04:18:46;;;;;;;7.53;5.45;;;20.00;60.70;;;;;;5009644;28;114709;-80
2023/09/03 04:21:13;;;;;;;7.00;4.85;;;20.00;60.80;;;;;;5025704;28;114261;-79
2023/09/03 04:23:43;;;;;;;7.15;5.22;;;20.00;60.50;;;;;;5027264;28;114325;-79
2023/09/03 04:26:10;;;;;;;7.03;4.82;;;20.10;60.50;;;;;;5008439;28;116684;-78
2023/09/03 04:28:41;;;;;;;7.03;4.80;;;20.10;60.50;;;;;;5025240;28;115219;-80
2023/09/03 04:31:08;;;;;;;7.20;4.90;;;20.20;60.40;;;;;;5025968;28;114307;-79
2023/09/03 04:33:38;;;;;;;7.03;4.95;;;20.20;60.20;;;;;;5027339;28;114159;-79
2023/09/03 04:36:08;;;;;;;9.20;5.85;;;20.20;60.20;;;;;;5008528;28;114902;-79
2023/09/03 04:38:35;;;;;;;7.57;6.30;;;20.30;60.50;;;;;;5026807;28;114692;-79
2023/09/03 04:41:06;;;;;;;11.82;6.40;;;20.30;60.40;;;;;;5026992;27;114163;-79
2023/09/03 04:43:48;;;;;;;8.15;4.95;;;20.30;60.60;;;;;;4994843;28;114319;-79
2023/09/03 04:46:19;;;;;;;9.73;7.03;;;20.30;60.40;;;;;;5024755;28;115409;-79
2023/09/03 04:48:46;;;;;;;7.20;5.05;;;20.30;61.00;;;;;;5008598;28;115227;-78
2023/09/03 04:51:13;;;;;;;6.85;4.68;;;20.30;60.30;;;;;;5009047;28;114215;-78
2023/09/03 04:53:40;;;;;;;7.32;5.18;;;20.30;60.10;;;;;;5025892;28;114350;-78
2023/09/03 04:56:12;;;;;;;5.68;4.47;;;20.30;60.00;;;;;;5024911;28;114972;-79
2023/09/03 04:58:40;;;;;;;8.63;5.97;;;20.30;59.80;;;;;;5024856;28;115114;-79
2023/09/03 05:01:14;;;;;;;7.85;5.13;;;20.30;60.30;;;;;;5008451;28;114100;-78
2023/09/03 05:03:43;;;;;;;7.63;5.10;;;20.30;60.00;;;;;;5009509;28;114273;-78
2023/09/03 05:06:16;;;;;;;8.88;6.55;;;20.30;60.00;;;;;;5024391;28;114895;-77
2023/09/03 05:08:45;;;;;;;7.10;5.00;;;20.40;60.10;;;;;;5008363;28;114705;-78
2023/09/03 05:11:15;;;;;;;10.65;8.05;;;20.40;59.70;;;;;;5025017;28;114420;-78
2023/09/03 05:13:43;;;;;;;9.85;7.40;;;20.40;60.40;;;;;;5008533;28;114377;-78
2023/09/03 05:16:12;;;;;;;7.90;5.57;;;20.40;60.50;;;;;;5007355;28;117288;-78
2023/09/03 05:18:41;;;;;;;8.40;5.55;;;20.40;60.00;;;;;;5007817;28;117851;-77
2023/09/03 05:21:08;;;;;;;10.77;6.97;;;20.50;59.80;;;;;;5008818;28;114275;-78
2023/09/03 05:23:36;;;;;;;8.80;7.28;;;20.40;60.10;;;;;;5025571;28;114120;-77
2023/09/03 05:26:04;;;;;;;7.63;5.35;;;20.50;60.10;;;;;;5008027;28;114989;-79
2023/09/03 05:28:35;;;;;;;11.45;8.02;;;20.40;59.70;;;;;;5024738;28;114728;-78
2023/09/03 05:31:02;;;;;;;9.32;7.18;;;20.50;60.20;;;;;;5024933;28;114170;-78
2023/09/03 05:33:30;;;;;;;7.80;5.70;;;20.50;60.10;;;;;;5025493;28;114097;-79
2023/09/03 05:35:58;;;;;;;7.38;5.55;;;20.50;59.70;;;;;;5007442;28;114820;-79
2023/09/03 05:38:25;;;;;;;6.88;5.63;;;20.50;59.80;;;;;;5024413;28;115207;-78
2023/09/03 05:40:52;;;;;;;9.90;6.18;;;20.50;59.70;;;;;;5025167;28;114153;-78
2023/09/03 05:43:20;;;;;;;8.52;5.82;;;20.50;59.80;;;;;;5008619;28;114258;-79
2023/09/03 05:45:53;;;;;;;7.35;5.65;;;20.50;59.70;;;;;;5024447;28;114869;-78
2023/09/03 05:48:20;;;;;;;8.27;6.60;;;20.50;59.60;;;;;;5008015;28;114718;-79
2023/09/03 05:50:54;;;;;;;8.25;6.38;;;20.60;59.70;;;;;;5024999;28;114168;-79
2023/09/03 05:53:21;;;;;;;10.15;6.40;;;20.60;59.60;;;;;;5025620;28;114312;-80
2023/09/03 05:55:48;;;;;;;6.70;5.65;;;20.50;59.70;;;;;;5024195;28;115459;-79
2023/09/03 05:58:16;;;;;;;6.07;4.82;;;20.60;59.60;;;;;;5025101;28;115264;-79
2023/09/03 06:00:46;;;;;;;8.80;6.47;;;20.60;59.50;;;;;;5024181;28;114298;-79
2023/09/03 06:03:13;;;;;;;8.65;7.00;;;20.60;59.60;;;;;;5024596;28;114304;-79
2023/09/03 06:05:42;;;;;;;7.88;6.75;;;20.50;59.80;;;;;;5023953;28;115390;-79
2023/09/03 06:08:09;;;;;;;6.47;5.13;;;20.50;59.80;;;;;;5023677;28;114658;-80
2023/09/03 06:10:38;;;;;;;11.52;10.38;;;20.60;59.50;;;;;;5025785;28;114026;-79
2023/09/03 06:13:05;;;;;;;9.45;8.50;;;20.60;60.40;;;;;;5026633;27;114383;-79
2023/09/03 06:15:32;;;;;;;12.30;11.00;;;20.50;59.90;;;;;;5028332;28;114823;-79
2023/09/03 06:17:59;;;;;;;10.20;8.55;;;20.50;60.70;;;;;;5028860;28;115470;-78
2023/09/03 06:20:26;;;;;;;12.70;11.50;;;20.50;60.20;;;;;;5029373;28;114162;-78
2023/09/03 06:22:54;;;;;;;10.48;9.38;;;20.50;60.70;;;;;;5029282;28;114290;-79
2023/09/03 06:25:21;;;;;;;8.45;6.53;;;20.30;60.50;;;;;;5010088;28;114930;-78
2023/09/03 06:27:48;;;;;;;9.93;7.85;;;20.30;60.10;;;;;;5027110;28;114943;-79
2023/09/03 06:30:15;;;;;;;10.25;9.15;;;20.30;60.30;;;;;;5029440;28;114384;-79
2023/09/03 06:32:42;;;;;;;18.20;14.00;;;20.30;60.50;;;;;;5029101;28;114362;-78
2023/09/03 06:35:11;;;;;;;14.60;11.48;;;20.30;61.70;;;;;;5027757;28;116217;-78
2023/09/03 06:37:38;;;;;;;7.55;6.00;;;20.10;61.90;;;;;;5028353;28;114630;-79
2023/09/03 06:40:07;;;;;;;12.10;9.80;;;20.00;61.10;;;;;;5027611;28;114333;-78
2023/09/03 06:42:34;;;;;;;9.82;7.38;;;20.00;62.30;;;;;;5028107;28;114302;-77
2023/09/03 06:45:01;;;;;;;9.05;8.10;;;19.90;61.90;;;;;;5026914;28;114960;-78
2023/09/03 06:47:29;;;;;;;12.23;9.35;;;19.80;62.20;;;;;;5028048;28;114602;-78
2023/09/03 06:49:56;;;;;;;12.10;10.90;;;19.80;62.50;;;;;;5028562;28;114206;-78
2023/09/03 06:52:23;;;;;;;11.27;9.73;;;19.80;62.80;;;;;;5028836;28;114225;-78
2023/09/03 06:54:50;;;;;;;8.60;7.68;;;19.80;62.70;;;;;;5027996;28;114980;-78
2023/09/03 06:57:19;;;;;;;11.00;8.18;;;19.80;62.50;;;;;;5026743;28;114752;-78
2023/09/03 06:59:55;;;;;;;17.17;15.38;;;19.70;62.50;;;;;;5028764;28;114057;-78
2023/09/03 07:02:23;;;;;;;12.55;10.75;;;19.80;63.80;;;;;;5028654;28;114082;-79
2023/09/03 07:04:50;;;;;;;10.75;7.95;;;19.80;63.30;;;;;;5009997;28;115398;-78
2023/09/03 07:07:17;;;;;;;10.32;7.60;;;19.70;63.10;;;;;;5028021;28;114921;-78
2023/09/03 07:09:44;;;;;;;11.60;9.75;;;19.60;63.00;;;;;;5028761;28;114278;-79
2023/09/03 07:12:11;;;;;;;13.20;11.90;;;19.60;63.50;;;;;;5028621;28;114673;-79
2023/09/03 07:14:38;;;;;;;8.10;7.03;;;19.70;64.10;;;;;;5026661;28;114896;-79
2023/09/03 07:17:05;;;;;;;14.55;13.07;;;19.80;62.90;;;;;;5027399;28;114592;-80
2023/09/03 07:19:32;;;;;;;9.05;6.93;;;19.80;63.70;;;;;;5028566;28;114159;-80
2023/09/03 07:21:59;;;;;;;9.93;8.98;;;19.80;62.70;;;;;;5027018;28;114143;-80
2023/09/03 07:24:26;;;;;;;8.55;7.65;;;19.90;63.10;;;;;;5025535;27;114952;-79
2023/09/03 07:26:54;;;;;;;12.40;10.85;;;20.00;62.40;;;;;;5027354;28;114571;-78
2023/09/03 07:29:21;;;;;;;12.55;11.30;;;20.20;62.90;;;;;;5010569;28;114240;-78
2023/09/03 07:31:48;;;;;;;11.25;8.93;;;20.20;62.50;;;;;;5028755;28;114441;-78
2023/09/03 07:34:15;;;;;;;10.77;9.27;;;20.40;61.70;;;;;;5026034;28;115586;-78
2023/09/03 07:36:42;;;;;;;10.02;8.80;;;20.40;61.60;;;;;;5027363;28;114808;-78
2023/09/03 07:39:10;;;;;;;10.65;8.35;;;20.50;61.50;;;;;;5026257;28;114011;-79
2023/09/03 07:41:38;;;;;;;9.90;7.72;;;20.60;61.10;;;;;;5027607;28;114305;-79
2023/09/03 07:44:05;;;;;;;12.52;11.23;;;20.60;61.00;;;;;;5025917;28;114871;-79
2023/09/03 07:46:32;;;;;;;13.95;11.07;;;20.70;60.90;;;;;;5025965;28;115047;-79
2023/09/03 07:49:00;;;;;;;13.30;11.88;;;20.70;61.00;;;;;;5028098;28;114288;-79
2023/09/03 07:51:29;;;;;;;16.75;14.18;;;20.80;61.00;;;;;;5027987;28;114175;-78
2023/09/03 07:53:56;;;;;;;13.73;12.30;;;20.80;62.10;;;;;;5025563;28;118492;-79
2023/09/03 07:56:24;;;;;;;14.15;12.73;;;20.70;61.50;;;;;;5027102;27;115878;-79
2023/09/03 07:58:51;;;;;;;13.07;11.63;;;20.70;61.80;;;;;;5027690;28;114379;-79
2023/09/03 08:01:19;;;;;;;10.65;9.55;;;20.70;61.10;;;;;;5027936;28;114222;-79
2023/09/03 08:03:46;;;;;;;15.38;13.80;;;20.70;60.70;;;;;;5025243;28;115110;-80
2023/09/03 08:06:13;;;;;;;11.65;9.70;;;20.80;61.40;;;;;;5026797;28;114856;-79
2023/09/03 08:08:41;;;;;;;13.05;10.85;;;20.80;60.70;;;;;;5026627;28;114300;-78
2023/09/03 08:11:08;;;;;;;17.50;15.50;;;20.80;60.80;;;;;;5026644;28;114144;-79
2023/09/03 08:13:35;;;;;;;13.80;11.88;;;20.80;61.60;;;;;;5026474;28;115478;-78
2023/09/03 08:16:04;;;;;;;14.50;13.00;;;20.80;61.00;;;;;;5027669;28;114379;-79
2023/09/03 08:18:31;;;;;;;14.65;13.23;;;21.00;61.50;;;;;;5027434;28;114356;-79
2023/09/03 08:20:58;;;;;;;13.55;12.27;;;21.10;60.70;;;;;;5026633;28;114095;-78
2023/09/03 08:23:26;;;;;;;10.88;9.77;;;21.10;60.80;;;;;;5025403;28;114879;-79
2023/09/03 08:25:53;;;;;;;10.52;9.30;;;21.10;60.00;;;;;;5026299;28;114668;-78
2023/09/03 08:28:21;;;;;;;9.43;8.43;;;21.20;59.90;;;;;;5026631;28;114254;-77
2023/09/03 08:30:48;;;;;;;9.45;8.40;;;21.20;59.70;;;;;;5026183;28;114281;-80
2023/09/03 08:33:15;;;;;;;11.57;8.70;;;21.20;59.30;;;;;;5008540;28;117798;-77
2023/09/03 08:35:43;;;;;;;8.65;7.75;;;21.30;59.10;;;;;;5025219;27;114737;-78
2023/09/03 08:38:10;;;;;;;11.27;10.07;;;21.30;59.00;;;;;;5025797;28;114236;-79
2023/09/03 08:40:37;;;;;;;12.30;11.00;;;21.30;58.70;;;;;;5027344;28;114075;-78
2023/09/03 08:43:07;;;;;;;11.27;10.18;;;21.30;58.50;;;;;;5025608;28;114806;-78
2023/09/03 08:45:48;;;;;;;9.23;8.02;;;21.20;58.80;;;;;;5026701;28;114968;-78
2023/09/03 08:48:16;;;;;;;9.93;8.93;;;21.10;59.10;;;;;;5026108;28;114331;-79
2023/09/03 08:50:44;;;;;;;10.32;8.15;;;21.10;58.90;;;;;;5025907;28;114327;-79
2023/09/03 08:53:11;;;;;;;9.10;7.82;;;21.10;58.80;;;;;;5025493;28;115103;-78
2023/09/03 08:55:39;;;;;;;10.48;9.25;;;21.10;58.40;;;;;;5024994;28;115265;-79
2023/09/03 08:58:06;;;;;;;10.25;8.07;;;21.00;58.70;;;;;;5027055;28;114260;-79
2023/09/03 09:00:33;;;;;;;8.23;7.43;;;21.00;59.00;;;;;;5026950;28;114054;-79
2023/09/03 09:03:01;;;;;;;8.13;7.10;;;21.00;58.90;;;;;;5025796;27;114893;-78
2023/09/03 09:05:28;;;;;;;9.85;7.25;;;21.00;58.70;;;;;;5024493;28;116321;-78
2023/09/03 09:07:55;;;;;;;9.20;7.20;;;21.00;59.10;;;;;;5026584;28;114232;-79
2023/09/03 09:10:24;;;;;;;9.50;7.35;;;21.00;59.00;;;;;;5026032;28;114382;-78
2023/09/03 09:13:04;;;;;;;9.13;6.93;;;21.00;58.50;;;;;;5024590;28;115799;-78
2023/09/03 09:15:31;;;;;;;7.05;5.68;;;21.20;58.40;;;;;;5023955;28;114673;-79
2023/09/03 09:17:58;;;;;;;7.82;6.00;;;21.30;58.10;;;;;;5024921;28;114079;-78
2023/09/03 09:20:25;;;;;;;6.85;5.65;;;21.30;57.50;;;;;;5026674;28;114335;-78
2023/09/03 09:22:54;;;;;;;11.48;6.85;;;21.30;57.50;;;;;;5025470;28;114705;-78
2023/09/03 09:25:22;;;;;;;7.97;5.78;;;21.30;57.40;;;;;;5024457;28;114671;-78
2023/09/03 09:27:52;;;;;;;7.80;7.00;;;21.30;57.40;;;;;;5026262;28;114237;-78
2023/09/03 09:30:19;;;;;;;6.45;5.75;;;21.20;57.90;;;;;;5025438;28;114178;-79
2023/09/03 09:32:47;;;;;;;7.38;6.38;;;21.00;57.80;;;;;;5025180;27;116408;-78
2023/09/03 09:35:24;;;;;;;8.05;6.28;;;20.90;58.30;;;;;;5008192;28;114709;-78
2023/09/03 09:37:51;;;;;;;7.07;6.10;;;21.00;58.30;;;;;;5026303;28;114282;-79
2023/09/03 09:40:26;;;;;;;6.90;6.15;;;21.10;58.10;;;;;;5026260;28;114105;-79
2023/09/03 09:42:55;;;;;;;7.40;6.65;;;21.20;57.70;;;;;;5023368;28;114939;-78
2023/09/03 09:45:23;;;;;;;7.30;6.60;;;21.20;57.40;;;;;;5024210;28;114652;-78
2023/09/03 09:48:09;;;;;;;8.05;6.32;;;21.30;57.40;;;;;;5025698;28;114316;-78
2023/09/03 09:50:37;;;;;;;7.82;6.05;;;21.30;57.50;;;;;;5025129;28;114352;-79
2023/09/03 09:53:04;;;;;;;6.97;6.28;;;21.30;56.50;;;;;;5007335;28;115047;-79
2023/09/03 09:55:34;;;;;;;7.10;5.82;;;21.40;56.00;;;;;;5025317;28;114858;-79
2023/09/03 09:58:01;;;;;;;6.43;5.80;;;21.50;55.70;;;;;;5024597;28;114274;-78
2023/09/03 10:00:33;;;;;;;6.75;5.63;;;21.50;55.70;;;;;;5008474;28;114238;-78
2023/09/03 10:03:00;;;;;;;6.72;5.70;;;21.60;55.20;;;;;;5006904;28;118047;-79
2023/09/03 10:05:27;;;;;;;7.03;5.60;;;21.60;54.60;;;;;;5025199;28;114750;-79
2023/09/03 10:07:55;;;;;;;8.93;5.93;;;21.70;55.10;;;;;;5007578;28;114157;-78
2023/09/03 10:10:22;;;;;;;7.63;5.93;;;21.70;54.70;;;;;;5007379;28;114226;-77
2023/09/03 10:12:49;;;;;;;6.47;5.80;;;21.80;54.90;;;;;;5007136;28;118671;-77
2023/09/03 10:15:17;;;;;;;7.68;5.68;;;21.90;54.50;;;;;;5022782;28;118533;-78
2023/09/03 10:17:45;;;;;;;8.75;6.47;;;22.00;53.40;;;;;;5024956;28;114214;-78
2023/09/03 10:20:15;;;;;;;8.80;5.80;;;22.00;53.10;;;;;;5025696;28;114259;-79
2023/09/03 10:22:47;;;;;;;6.25;5.40;;;22.10;53.10;;;;;;4991972;28;118910;-77
2023/09/03 10:25:15;;;;;;;7.30;5.70;;;22.20;53.20;;;;;;5029010;28;115393;-78
2023/09/03 10:27:48;;;;;;;6.47;5.40;;;22.20;53.00;;;;;;5024363;28;114228;-79
2023/09/03 10:30:17;;;;;;;8.15;5.25;;;22.20;52.30;;;;;;5025530;28;114132;-80
2023/09/03 10:32:44;;;;;;;7.40;5.57;;;22.20;52.20;;;;;;5022573;28;115402;-79
2023/09/03 10:35:12;;;;;;;6.82;5.20;;;22.10;52.00;;;;;;5023309;28;114749;-77
2023/09/03 10:37:40;;;;;;;5.65;4.80;;;22.00;52.40;;;;;;5025750;28;114477;-78
2023/09/03 10:40:24;;;;;;;7.57;5.20;;;21.90;52.10;;;;;;5024206;28;114502;-79
2023/09/03 10:42:52;;;;;;;6.57;5.50;;;21.80;52.50;;;;;;5024407;28;115001;-79
2023/09/03 10:45:19;;;;;;;6.07;5.28;;;21.70;53.00;;;;;;5023298;28;116364;-79
2023/09/03 10:48:02;;;;;;;6.13;4.80;;;21.70;52.80;;;;;;5024372;28;114323;-78
2023/09/03 10:50:50;;;;;;;9.18;5.40;;;21.70;51.90;;;;;;5024607;28;114083;-79
2023/09/03 10:53:38;;;;;;;6.03;4.68;;;21.70;52.10;;;;;;5023389;28;115235;-78
2023/09/03 10:56:16;;;;;;;6.10;4.95;;;21.80;51.80;;;;;;5009053;28;114635;-78
2023/09/03 10:58:59;;;;;;;6.20;4.60;;;21.70;51.50;;;;;;5024914;28;114044;-78
2023/09/03 11:01:30;;;;;;;5.65;4.75;;;21.80;51.90;;;;;;5010350;28;114309;-78
2023/09/03 11:04:07;;;;;;;5.53;4.55;;;21.80;51.10;;;;;;5027763;28;115168;-79
2023/09/03 11:06:35;;;;;;;6.20;4.82;;;21.90;50.20;;;;;;5026710;28;114563;-78
2023/09/03 11:09:05;;;;;;;5.70;4.18;;;21.90;51.00;;;;;;5028547;27;114531;-79
2023/09/03 11:11:35;;;;;;;5.15;4.50;;;21.90;51.10;;;;;;5010510;28;114270;-80
2023/09/03 11:14:03;;;;;;;7.30;5.40;;;22.00;50.70;;;;;;5025821;28;116061;-79
2023/09/03 11:16:31;;;;;;;6.40;4.85;;;22.00;50.30;;;;;;5026832;28;114801;-79
2023/09/03 11:18:58;;;;;;;6.75;4.93;;;22.10;50.20;;;;;;5027319;28;114272;-79
2023/09/03 11:21:26;;;;;;;5.57;4.22;;;22.20;50.30;;;;;;5028286;28;114088;-78
2023/09/03 11:24:03;;;;;;;5.72;3.70;;;22.30;49.40;;;;;;5025586;28;115462;-78
2023/09/03 11:26:31;;;;;;;6.25;4.28;;;22.40;49.30;;;;;;5027500;28;114742;-78
2023/09/03 11:28:59;;;;;;;6.45;4.40;;;22.50;49.50;;;;;;5027183;28;114438;-79
2023/09/03 11:31:29;;;;;;;6.40;4.60;;;22.60;48.50;;;;;;5028322;28;114343;-78
2023/09/03 11:33:56;;;;;;;5.85;4.72;;;22.60;48.50;;;;;;5026029;28;116268;-78
2023/09/03 11:36:25;;;;;;;5.43;4.43;;;22.60;47.80;;;;;;5026039;28;114910;-78
2023/09/03 11:38:55;;;;;;;5.90;4.28;;;22.60;47.90;;;;;;5028145;28;114022;-78
2023/09/03 11:41:23;;;;;;;7.18;4.35;;;22.50;47.60;;;;;;5027453;28;114215;-77
2023/09/03 11:43:50;;;;;;;6.97;4.43;;;22.50;47.70;;;;;;5008843;28;115606;-78
2023/09/03 11:46:18;;;;;;;8.02;4.57;;;22.40;47.30;;;;;;5025968;28;114604;-78
2023/09/03 11:48:50;;;;;;;7.03;4.50;;;22.30;47.70;;;;;;5027395;28;114046;-79
2023/09/03 11:51:25;;;;;;;5.55;4.53;;;22.30;47.40;;;;;;5025837;28;114412;-79
2023/09/03 11:53:55;;;;;;;5.70;4.45;;;22.30;47.30;;;;;;5025647;28;118004;-78
2023/09/03 11:56:23;;;;;;;7.50;4.75;;;22.30;48.00;;;;;;5025844;28;114781;-79
2023/09/03 11:58:57;;;;;;;5.60;4.80;;;22.30;47.80;;;;;;5027921;28;114320;-79
2023/09/03 12:01:25;;;;;;;6.50;4.70;;;22.20;47.40;;;;;;5026496;28;114447;-80
2023/09/03 12:03:52;;;;;;;5.28;4.30;;;22.10;47.70;;;;;;5025511;28;115635;-79
2023/09/03 12:06:20;;;;;;;5.97;4.90;;;22.10;48.00;;;;;;5026059;28;115000;-80
2023/09/03 12:08:48;;;;;;;7.90;4.40;;;22.10;48.60;;;;;;5025289;28;114382;-79
2023/09/03 12:11:15;;;;;;;5.53;4.00;;;22.10;48.90;;;;;;5025948;27;114325;-79
2023/09/03 12:13:44;;;;;;;6.63;4.32;;;22.30;48.20;;;;;;5025957;28;114890;-79
2023/09/03 12:16:15;;;;;;;6.82;4.50;;;22.40;48.00;;;;;;5025674;28;115093;-79
2023/09/03 12:18:58;;;;;;;6.45;4.40;;;22.50;47.60;;;;;;5027395;28;114111;-79
2023/09/03 12:21:32;;;;;;;4.85;3.92;;;22.60;47.50;;;;;;5026302;28;114447;-79
2023/09/03 12:24:04;;;;;;;6.50;4.38;;;22.50;46.10;;;;;;5026215;28;115424;-78
2023/09/03 12:26:34;;;;;;;5.95;3.70;;;22.50;47.10;;;;;;5026609;28;114760;-79
2023/09/03 12:29:03;;;;;;;4.88;3.97;;;22.40;46.60;;;;;;5026023;28;114313;-79
2023/09/03 12:31:43;;;;;;;5.65;3.50;;;22.40;47.50;;;;;;5027432;28;114938;-78
2023/09/03 12:34:11;;;;;;;4.85;3.63;;;22.50;47.20;;;;;;5008985;28;115594;-78
2023/09/03 12:36:57;;;;;;;5.90;3.53;;;22.50;47.60;;;;;;5026515;27;115122;-79
2023/09/03 12:39:31;;;;;;;4.38;3.40;;;22.50;46.50;;;;;;5026860;28;114323;-79
2023/09/03 12:41:59;;;;;;;5.20;3.55;;;22.50;46.40;;;;;;5026878;28;114386;-79
2023/09/03 12:44:26;;;;;;;5.88;3.67;;;22.40;46.50;;;;;;5024748;28;114882;-79